Phatthaya, Thailand

5:06 AM ICT on January 21, 2017 (GMT +0700)
Na Kluea | | Change Station

Elev 0 ft 12.90 °N, 100.87 °E | Updated 9 minutes ago

Mostly Cloudy
Mostly Cloudy
82.8 °F
Feels Like 86 °F
N
1.9
Wind Variable Wind from SSE
Gusts 5.0 mph

Today
High -- | Low -- °F
--% Chance of Precip.
Yesterday
High -- | Low -- °F
Precip. -- in
Pressure 29.89 in
Visibility 2.5 miles
Clouds Few 2000 ft
Scattered Clouds 10000 ft
Heat Index 86 °F
Dew Point 69 °F
Humidity 62%
Rainfall 0.00 in
Snow Depth Not available.
6:43 AM 6:12 PM
Last Quarter, 41% visible
METAR VTBU 202130Z 34004KT 4000 BR FEW020 SCT100 26/21 Q1012 NOSIG
Pressure 29.89 in
Visibility 2.5 miles
Clouds Few 2000 ft
Scattered Clouds 10000 ft
Heat Index 86 °F
Dew Point 69 °F
Humidity 62%
Rainfall 0.00 in
Snow Depth Not available.
6:43 AM 6:12 PM
Last Quarter, 41% visible
METAR VTBU 202130Z 34004KT 4000 BR FEW020 SCT100 26/21 Q1012 NOSIG

Get Your Daily Forecast Email!

Thanks for signing up!

Be on the lookout for a verification email in your inbox.

You'll start receiving the daily forecast at 8 AM.

×

10-Day Weather Forecast

No radar image for this location.
×

Almanac

Astronomy

Jan. 21, 2017 Rise Set
Actual Time
Civil Twilight
Nautical Twilight
Astronomical Twilight
Moon
Length of Visible Light
Length of Day
Tomorrow will be .
, % of the Moon is Illuminated

Today's Extremes

Country Highs Country Lows

Community

WunderPhotos

Upload Photos

1,962,540 photos uploaded!

WunderBlog® & News

Nearby

Air Quality

  Air Quality AQ Index Pollutant
Not available.

Snow Depth

Station Depth Elevation

Earthquake Activity

City Distance Mag. Time & Date
Minimum magnitude displayed is 2.5.

Coastal Water Temperatures

Place Temperature

Stations

Nearby Weather Stations

Station Location Temp. Windchill Dew Point Humidity Wind Precip. Elev Updated Type